sensor_id;sensor_type;location;lat;lon;timestamp;P1;durP1;ratioP1;P2;durP2;ratioP2
57535;SDS011;43361;49.790;8.960;2022-12-07T00:00:20;22.10;;;12.32;;
57535;SDS011;43361;49.790;8.960;2022-12-07T00:10:21;20.35;;;11.63;;
57535;SDS011;43361;49.790;8.960;2022-12-07T00:20:22;18.83;;;10.95;;
57535;SDS011;43361;49.790;8.960;2022-12-07T00:30:24;15.90;;;10.48;;
57535;SDS011;43361;49.790;8.960;2022-12-07T00:40:24;16.77;;;10.65;;
57535;SDS011;43361;49.790;8.960;2022-12-07T00:50:26;18.10;;;10.68;;
57535;SDS011;43361;49.790;8.960;2022-12-07T01:00:26;16.83;;;9.70;;
57535;SDS011;43361;49.790;8.960;2022-12-07T01:10:28;17.52;;;8.77;;
57535;SDS011;43361;49.790;8.960;2022-12-07T01:20:30;16.40;;;9.25;;
57535;SDS011;43361;49.790;8.960;2022-12-07T01:30:32;13.68;;;8.50;;
57535;SDS011;43361;49.790;8.960;2022-12-07T01:40:32;16.23;;;8.73;;
57535;SDS011;43361;49.790;8.960;2022-12-07T01:50:34;13.23;;;8.43;;
57535;SDS011;43361;49.790;8.960;2022-12-07T02:00:35;14.40;;;8.30;;
57535;SDS011;43361;49.790;8.960;2022-12-07T02:10:37;12.00;;;7.75;;
57535;SDS011;43361;49.790;8.960;2022-12-07T02:20:37;11.65;;;7.60;;
57535;SDS011;43361;49.790;8.960;2022-12-07T02:30:44;13.18;;;7.85;;
57535;SDS011;43361;49.790;8.960;2022-12-07T02:40:48;12.07;;;7.47;;
57535;SDS011;43361;49.790;8.960;2022-12-07T02:50:52;10.82;;;6.72;;
57535;SDS011;43361;49.790;8.960;2022-12-07T03:00:54;9.52;;;6.70;;
57535;SDS011;43361;49.790;8.960;2022-12-07T03:11:00;9.60;;;6.28;;
57535;SDS011;43361;49.790;8.960;2022-12-07T03:21:02;11.15;;;6.40;;
57535;SDS011;43361;49.790;8.960;2022-12-07T03:31:07;9.57;;;6.40;;
57535;SDS011;43361;49.790;8.960;2022-12-07T03:41:09;11.52;;;6.65;;
57535;SDS011;43361;49.790;8.960;2022-12-07T03:51:13;10.48;;;6.63;;
57535;SDS011;43361;49.790;8.960;2022-12-07T04:01:14;8.98;;;6.03;;
57535;SDS011;43361;49.790;8.960;2022-12-07T04:11:16;9.98;;;5.97;;
57535;SDS011;43361;49.790;8.960;2022-12-07T04:21:17;8.05;;;5.50;;
57535;SDS011;43361;49.790;8.960;2022-12-07T04:31:18;8.15;;;5.50;;
57535;SDS011;43361;49.790;8.960;2022-12-07T04:41:19;7.35;;;4.85;;
57535;SDS011;43361;49.790;8.960;2022-12-07T04:51:21;7.28;;;4.80;;
57535;SDS011;43361;49.790;8.960;2022-12-07T05:01:23;7.18;;;5.00;;
57535;SDS011;43361;49.790;8.960;2022-12-07T05:11:25;8.65;;;4.88;;
57535;SDS011;43361;49.790;8.960;2022-12-07T05:21:40;7.30;;;4.65;;
57535;SDS011;43361;49.790;8.960;2022-12-07T05:31:43;6.80;;;4.20;;
57535;SDS011;43361;49.790;8.960;2022-12-07T05:41:43;5.55;;;4.18;;
57535;SDS011;43361;49.790;8.960;2022-12-07T05:52:03;6.50;;;4.25;;
57535;SDS011;43361;49.790;8.960;2022-12-07T06:02:05;5.60;;;3.65;;
57535;SDS011;43361;49.790;8.960;2022-12-07T06:12:08;5.72;;;4.00;;
57535;SDS011;43361;49.790;8.960;2022-12-07T06:22:27;6.15;;;3.95;;
57535;SDS011;43361;49.790;8.960;2022-12-07T06:32:29;6.13;;;3.80;;
57535;SDS011;43361;49.790;8.960;2022-12-07T06:42:29;8.18;;;4.82;;
57535;SDS011;43361;49.790;8.960;2022-12-07T06:52:31;14.73;;;4.28;;
57535;SDS011;43361;49.790;8.960;2022-12-07T07:02:32;15.32;;;6.28;;
57535;SDS011;43361;49.790;8.960;2022-12-07T07:12:33;20.23;;;5.05;;
57535;SDS011;43361;49.790;8.960;2022-12-07T07:22:34;11.95;;;4.78;;
57535;SDS011;43361;49.790;8.960;2022-12-07T07:32:35;18.73;;;5.97;;
57535;SDS011;43361;49.790;8.960;2022-12-07T07:42:36;23.80;;;6.25;;
57535;SDS011;43361;49.790;8.960;2022-12-07T07:52:38;30.23;;;7.13;;
57535;SDS011;43361;49.790;8.960;2022-12-07T08:02:38;14.95;;;5.90;;
57535;SDS011;43361;49.790;8.960;2022-12-07T08:12:41;16.40;;;6.10;;
57535;SDS011;43361;49.790;8.960;2022-12-07T08:23:00;12.38;;;5.13;;
57535;SDS011;43361;49.790;8.960;2022-12-07T08:33:02;12.52;;;5.85;;
57535;SDS011;43361;49.790;8.960;2022-12-07T08:43:02;18.00;;;5.32;;
57535;SDS011;43361;49.790;8.960;2022-12-07T08:53:04;11.95;;;5.95;;
57535;SDS011;43361;49.790;8.960;2022-12-07T09:03:06;13.88;;;6.07;;
57535;SDS011;43361;49.790;8.960;2022-12-07T09:13:08;13.07;;;5.55;;
57535;SDS011;43361;49.790;8.960;2022-12-07T09:23:08;13.20;;;5.55;;
57535;SDS011;43361;49.790;8.960;2022-12-07T09:33:10;10.52;;;4.90;;
57535;SDS011;43361;49.790;8.960;2022-12-07T09:43:12;13.40;;;5.32;;
57535;SDS011;43361;49.790;8.960;2022-12-07T09:53:16;12.95;;;4.95;;
57535;SDS011;43361;49.790;8.960;2022-12-07T10:03:18;10.57;;;4.88;;
57535;SDS011;43361;49.790;8.960;2022-12-07T10:13:21;14.48;;;5.10;;
57535;SDS011;43361;49.790;8.960;2022-12-07T10:23:22;10.20;;;4.55;;
57535;SDS011;43361;49.790;8.960;2022-12-07T10:33:31;10.10;;;4.07;;
57535;SDS011;43361;49.790;8.960;2022-12-07T10:43:31;8.27;;;4.00;;
57535;SDS011;43361;49.790;8.960;2022-12-07T10:53:42;6.78;;;3.88;;
57535;SDS011;43361;49.790;8.960;2022-12-07T11:03:55;9.23;;;4.30;;
57535;SDS011;43361;49.790;8.960;2022-12-07T11:14:04;7.57;;;3.97;;
57535;SDS011;43361;49.790;8.960;2022-12-07T11:24:08;10.80;;;3.85;;
57535;SDS011;43361;49.790;8.960;2022-12-07T11:34:13;13.85;;;4.75;;
57535;SDS011;43361;49.790;8.960;2022-12-07T11:44:18;14.98;;;4.10;;
57535;SDS011;43361;49.790;8.960;2022-12-07T11:54:23;14.13;;;4.38;;
57535;SDS011;43361;49.790;8.960;2022-12-07T12:04:27;13.07;;;3.97;;
57535;SDS011;43361;49.790;8.960;2022-12-07T12:14:42;11.40;;;3.92;;
57535;SDS011;43361;49.790;8.960;2022-12-07T12:24:46;161.82;;;72.32;;
57535;SDS011;43361;49.790;8.960;2022-12-07T12:34:59;161.40;;;75.05;;
57535;SDS011;43361;49.790;8.960;2022-12-07T12:55:17;119.22;;;53.78;;
57535;SDS011;43361;49.790;8.960;2022-12-07T13:05:21;109.78;;;48.92;;
57535;SDS011;43361;49.790;8.960;2022-12-07T13:15:34;89.40;;;42.63;;
57535;SDS011;43361;49.790;8.960;2022-12-07T13:25:41;81.40;;;40.05;;
57535;SDS011;43361;49.790;8.960;2022-12-07T13:35:45;85.68;;;38.03;;
57535;SDS011;43361;49.790;8.960;2022-12-07T13:45:45;61.60;;;28.55;;
57535;SDS011;43361;49.790;8.960;2022-12-07T13:55:57;60.75;;;29.33;;
57535;SDS011;43361;49.790;8.960;2022-12-07T14:06:05;53.88;;;27.35;;
57535;SDS011;43361;49.790;8.960;2022-12-07T14:16:17;55.53;;;25.38;;
57535;SDS011;43361;49.790;8.960;2022-12-07T14:26:19;48.85;;;22.98;;
57535;SDS011;43361;49.790;8.960;2022-12-07T14:36:22;46.30;;;22.30;;
57535;SDS011;43361;49.790;8.960;2022-12-07T14:46:22;41.10;;;20.13;;
57535;SDS011;43361;49.790;8.960;2022-12-07T14:56:24;38.85;;;19.30;;
57535;SDS011;43361;49.790;8.960;2022-12-07T15:06:24;35.67;;;18.33;;
57535;SDS011;43361;49.790;8.960;2022-12-07T15:16:27;29.83;;;16.73;;
57535;SDS011;43361;49.790;8.960;2022-12-07T15:26:27;31.48;;;16.60;;
57535;SDS011;43361;49.790;8.960;2022-12-07T15:36:30;32.63;;;15.55;;
57535;SDS011;43361;49.790;8.960;2022-12-07T15:46:31;30.50;;;15.77;;
57535;SDS011;43361;49.790;8.960;2022-12-07T15:56:33;27.25;;;14.02;;
57535;SDS011;43361;49.790;8.960;2022-12-07T16:06:33;23.95;;;13.52;;
57535;SDS011;43361;49.790;8.960;2022-12-07T16:16:35;26.80;;;13.65;;
57535;SDS011;43361;49.790;8.960;2022-12-07T16:26:35;21.52;;;11.35;;
57535;SDS011;43361;49.790;8.960;2022-12-07T16:36:37;24.70;;;12.35;;
57535;SDS011;43361;49.790;8.960;2022-12-07T16:46:37;18.98;;;10.18;;
57535;SDS011;43361;49.790;8.960;2022-12-07T16:56:39;17.27;;;10.25;;
57535;SDS011;43361;49.790;8.960;2022-12-07T17:06:40;20.17;;;10.50;;
57535;SDS011;43361;49.790;8.960;2022-12-07T17:16:42;23.23;;;11.15;;
57535;SDS011;43361;49.790;8.960;2022-12-07T17:26:42;24.48;;;9.40;;
57535;SDS011;43361;49.790;8.960;2022-12-07T17:36:44;23.75;;;9.85;;
57535;SDS011;43361;49.790;8.960;2022-12-07T17:46:45;18.80;;;8.70;;
57535;SDS011;43361;49.790;8.960;2022-12-07T17:56:47;18.33;;;9.18;;
57535;SDS011;43361;49.790;8.960;2022-12-07T18:06:48;15.20;;;8.73;;
57535;SDS011;43361;49.790;8.960;2022-12-07T18:16:50;13.55;;;7.57;;
57535;SDS011;43361;49.790;8.960;2022-12-07T18:26:50;15.43;;;8.32;;
57535;SDS011;43361;49.790;8.960;2022-12-07T18:36:53;16.65;;;7.47;;
57535;SDS011;43361;49.790;8.960;2022-12-07T18:46:54;14.40;;;6.95;;
57535;SDS011;43361;49.790;8.960;2022-12-07T18:56:56;13.85;;;7.20;;
57535;SDS011;43361;49.790;8.960;2022-12-07T19:06:56;15.80;;;6.72;;
57535;SDS011;43361;49.790;8.960;2022-12-07T19:16:59;14.40;;;7.03;;
57535;SDS011;43361;49.790;8.960;2022-12-07T19:27:02;14.40;;;6.63;;
57535;SDS011;43361;49.790;8.960;2022-12-07T19:37:04;20.45;;;6.70;;
57535;SDS011;43361;49.790;8.960;2022-12-07T19:47:05;14.38;;;6.65;;
57535;SDS011;43361;49.790;8.960;2022-12-07T19:57:07;16.25;;;6.72;;
57535;SDS011;43361;49.790;8.960;2022-12-07T20:07:10;20.08;;;6.28;;
57535;SDS011;43361;49.790;8.960;2022-12-07T20:17:12;13.27;;;5.85;;
57535;SDS011;43361;49.790;8.960;2022-12-07T20:27:12;10.95;;;6.00;;
57535;SDS011;43361;49.790;8.960;2022-12-07T20:37:14;9.13;;;4.95;;
57535;SDS011;43361;49.790;8.960;2022-12-07T20:47:14;17.65;;;6.28;;
57535;SDS011;43361;49.790;8.960;2022-12-07T20:57:16;9.88;;;4.68;;
57535;SDS011;43361;49.790;8.960;2022-12-07T21:07:16;10.05;;;5.10;;
57535;SDS011;43361;49.790;8.960;2022-12-07T21:17:18;10.25;;;4.82;;
57535;SDS011;43361;49.790;8.960;2022-12-07T21:27:19;8.52;;;4.57;;
57535;SDS011;43361;49.790;8.960;2022-12-07T21:37:20;12.57;;;4.50;;
57535;SDS011;43361;49.790;8.960;2022-12-07T21:47:21;9.15;;;4.30;;
57535;SDS011;43361;49.790;8.960;2022-12-07T21:57:23;8.68;;;4.43;;
57535;SDS011;43361;49.790;8.960;2022-12-07T22:07:23;9.63;;;4.53;;
57535;SDS011;43361;49.790;8.960;2022-12-07T22:17:25;8.05;;;4.50;;
57535;SDS011;43361;49.790;8.960;2022-12-07T22:27:27;10.32;;;4.13;;
57535;SDS011;43361;49.790;8.960;2022-12-07T22:37:29;9.52;;;4.20;;
57535;SDS011;43361;49.790;8.960;2022-12-07T22:47:29;8.88;;;4.07;;
57535;SDS011;43361;49.790;8.960;2022-12-07T22:57:31;8.48;;;4.10;;
57535;SDS011;43361;49.790;8.960;2022-12-07T23:07:32;7.57;;;3.90;;
57535;SDS011;43361;49.790;8.960;2022-12-07T23:17:35;7.18;;;3.40;;
57535;SDS011;43361;49.790;8.960;2022-12-07T23:27:35;6.78;;;3.35;;
57535;SDS011;43361;49.790;8.960;2022-12-07T23:37:37;6.53;;;3.45;;
57535;SDS011;43361;49.790;8.960;2022-12-07T23:47:38;6.47;;;3.65;;
57535;SDS011;43361;49.790;8.960;2022-12-07T23:57:39;7.50;;;3.47;;
